Algonac, Michigan
Current Conditions -  °F | °C
As of 7:55 AM on Friday 24 Oct 2014 (Local Time) from KMTC Reporting Station
Light Fog Light Fog  
Wind Chill:   Ceiling: 21000
Heat Index:   Visibility: 7mi
Dew Point:   Wind: 0mph
Humidity: 99%   Direction: NA
Pressure: 30.05"   Gusts: NA
Location:  42.62°N, 82.53°W
Report Text: KMTC 241155Z 00000KT 7SM MIFG BKN210 02/02 A3005 RMK SLP188 T00220021 10038 20018 50000
Loading
Personal Weather Stations






























Interactive Weather Map
Tropical Storm Tracking
New forecast layout! Learn more

10-Day Weather Forecast

Advertisements
Track Severe Weather on mobile